Time,TemperatureF,DewpointF,PressureIn,WindDirection,WindDirectionDegrees,WindSpeedMPH,WindSpeedGustMPH,Humidity,HourlyPrecipIn,Conditions,Clouds,dailyrainin,SoftwareType,DateUTC
2013-01-18 00:02:00,34.6,34.6,30.22,WNW,295,0.0,0.0,100,0.00,,---,0.00,VWS V14.01,2013-01-18 05:02:00,
2013-01-18 00:03:00,34.6,34.6,30.22,WNW,295,0.0,0.0,100,0.00,,---,0.00,VWS V14.01,2013-01-18 05:03:00,
2013-01-18 00:04:00,34.6,34.6,30.22,WNW,295,0.0,0.0,100,0.00,,---,0.00,VWS V14.01,2013-01-18 05:04:00,
2013-01-18 00:09:00,34.6,34.6,30.22,WNW,295,0.0,0.0,100,0.00,,---,0.00,VWS V14.01,2013-01-18 05:09:00,
2013-01-18 00:15:00,34.4,34.4,30.22,WNW,295,0.0,0.0,100,0.00,,---,0.00,VWS V14.01,2013-01-18 05:15:00,
2013-01-18 00:20:00,34.6,34.6,30.22,WNW,295,0.0,0.0,100,0.00,,---,0.00,VWS V14.01,2013-01-18 05:20:00,
2013-01-18 00:25:00,34.6,34.6,30.22,NW,307,0.0,0.0,100,0.00,,---,0.00,VWS V14.01,2013-01-18 05:25:00,
2013-01-18 00:30:00,34.6,34.6,30.22,NW,307,0.0,0.0,100,0.00,,---,0.00,VWS V14.01,2013-01-18 05:30:00,
2013-01-18 00:35:00,34.6,34.6,30.22,NW,307,0.0,0.0,100,0.00,,---,0.00,VWS V14.01,2013-01-18 05:35:00,
2013-01-18 00:41:00,34.6,34.6,30.22,NW,306,0.0,0.0,100,0.00,,---,0.00,VWS V14.01,2013-01-18 05:41:00,
2013-01-18 00:46:00,34.6,34.6,30.22,NW,320,0.0,0.0,100,0.00,,---,0.00,VWS V14.01,2013-01-18 05:46:00,
2013-01-18 00:51:00,34.4,34.4,30.22,West,268,0.0,0.0,100,0.00,,---,0.00,VWS V14.01,2013-01-18 05:51:00,
2013-01-18 00:56:00,34.3,34.3,30.25,West,268,0.0,0.0,100,0.00,,---,0.00,VWS V14.01,2013-01-18 05:56:00,
2013-01-18 01:01:00,34.3,34.3,30.25,North,2,0.0,0.0,100,0.00,,---,0.00,VWS V14.01,2013-01-18 06:01:00,
2013-01-18 01:06:00,34.1,34.1,30.25,NW,317,0.0,0.0,100,0.00,,---,0.00,VWS V14.01,2013-01-18 06:06:00,
2013-01-18 01:11:00,34.1,34.1,30.25,NW,317,0.0,0.0,100,0.00,,---,0.00,VWS V14.01,2013-01-18 06:11:00,
2013-01-18 01:16:00,34.1,34.1,30.25,NW,317,0.0,0.0,100,0.00,,---,0.00,VWS V14.01,2013-01-18 06:16:00,
2013-01-18 01:21:00,33.9,33.9,30.25,NW,317,0.0,0.0,100,0.00,,---,0.00,VWS V14.01,2013-01-18 06:21:00,
2013-01-18 01:27:00,33.7,33.7,30.25,NW,317,0.0,0.0,100,0.00,,---,0.00,VWS V14.01,2013-01-18 06:27:00,
2013-01-18 01:32:00,33.7,33.7,30.25,NW,317,0.0,0.0,100,0.00,,---,0.00,VWS V14.01,2013-01-18 06:32:00,
2013-01-18 01:37:00,33.7,33.7,30.25,WNW,303,0.0,0.0,100,0.00,,---,0.00,VWS V14.01,2013-01-18 06:37:00,
2013-01-18 01:42:00,33.7,33.7,30.28,NNW,339,0.0,0.0,100,0.00,,---,0.00,VWS V14.01,2013-01-18 06:42:00,
2013-01-18 01:47:00,33.5,33.5,30.28,North,350,0.0,0.0,100,0.00,,---,0.00,VWS V14.01,2013-01-18 06:47:00,
2013-01-18 01:52:00,33.5,33.5,30.28,NNW,338,0.0,0.0,100,0.00,,---,0.00,VWS V14.01,2013-01-18 06:52:00,
2013-01-18 01:57:00,33.4,33.4,30.28,NW,322,0.0,0.0,100,0.00,,---,0.00,VWS V14.01,2013-01-18 06:57:00,
2013-01-18 02:02:00,33.4,33.4,30.28,NNW,335,0.0,0.0,100,0.00,,---,0.00,VWS V14.01,2013-01-18 07:02:00,
2013-01-18 02:08:00,33.2,33.2,30.28,NNW,328,0.0,0.0,100,0.00,,---,0.00,VWS V14.01,2013-01-18 07:08:00,
2013-01-18 02:13:00,33.0,33.0,30.28,North,0,0.0,0.0,100,0.00,,---,0.00,VWS V14.01,2013-01-18 07:13:00,
2013-01-18 02:18:00,33.0,33.0,30.28,NNW,329,0.0,0.0,100,0.00,,---,0.00,VWS V14.01,2013-01-18 07:18:00,
2013-01-18 02:23:00,32.8,32.8,30.28,North,350,0.0,0.0,100,0.00,,---,0.00,VWS V14.01,2013-01-18 07:23:00,
2013-01-18 02:28:00,32.6,32.6,30.28,NNW,332,0.0,0.0,100,0.00,,---,0.00,VWS V14.01,2013-01-18 07:28:00,
2013-01-18 02:33:00,32.5,32.5,30.28,NW,308,0.0,0.0,100,0.00,,---,0.00,VWS V14.01,2013-01-18 07:33:00,
2013-01-18 02:38:00,32.5,32.5,30.28,NNW,348,0.0,0.0,100,0.00,,---,0.00,VWS V14.01,2013-01-18 07:38:00,
2013-01-18 02:43:00,32.3,32.3,30.28,WNW,283,0.0,0.0,100,0.00,,---,0.00,VWS V14.01,2013-01-18 07:43:00,
2013-01-18 02:48:00,32.3,32.3,30.28,NW,325,0.0,0.0,100,0.00,,---,0.00,VWS V14.01,2013-01-18 07:48:00,
2013-01-18 02:54:00,32.3,32.3,30.28,NNW,328,0.0,0.0,100,0.00,,---,0.00,VWS V14.01,2013-01-18 07:54:00,
2013-01-18 02:59:00,32.5,32.5,30.28,NW,320,0.0,0.0,100,0.00,,---,0.00,VWS V14.01,2013-01-18 07:59:00,
2013-01-18 03:04:00,32.6,32.6,30.28,NW,318,0.0,0.0,100,0.00,,---,0.00,VWS V14.01,2013-01-18 08:04:00,
2013-01-18 03:09:00,32.8,32.8,30.28,NNW,330,0.0,0.0,100,0.00,,---,0.00,VWS V14.01,2013-01-18 08:09:00,
2013-01-18 03:14:00,33.0,33.0,30.28,North,0,0.0,0.0,100,0.00,,---,0.00,VWS V14.01,2013-01-18 08:14:00,
2013-01-18 03:19:00,33.2,33.2,30.28,NNW,333,0.0,0.0,100,0.00,,---,0.00,VWS V14.01,2013-01-18 08:19:00,
2013-01-18 03:25:00,33.0,33.0,30.28,NNW,341,0.0,0.0,100,0.00,,---,0.00,VWS V14.01,2013-01-18 08:25:00,
2013-01-18 03:30:00,33.0,33.0,30.28,NNW,327,0.0,0.0,100,0.00,,---,0.00,VWS V14.01,2013-01-18 08:30:00,
2013-01-18 03:35:00,32.8,32.8,30.28,NNW,339,0.0,0.0,100,0.00,,---,0.00,VWS V14.01,2013-01-18 08:35:00,
2013-01-18 03:40:00,32.8,32.8,30.28,NNW,329,0.0,0.0,100,0.00,,---,0.00,VWS V14.01,2013-01-18 08:40:00,
2013-01-18 03:45:00,32.8,32.8,30.28,NNW,343,0.0,0.0,100,0.00,,---,0.00,VWS V14.01,2013-01-18 08:45:00,
2013-01-18 03:50:00,32.8,32.5,30.28,SW,221,0.0,0.0,99,0.00,,---,0.00,VWS V14.01,2013-01-18 08:50:00,
2013-01-18 03:55:00,32.8,32.5,30.28,WSW,239,0.0,0.0,99,0.00,,---,0.00,VWS V14.01,2013-01-18 08:55:00,
2013-01-18 04:00:00,32.5,32.1,30.28,SW,235,0.0,0.0,99,0.00,,---,0.00,VWS V14.01,2013-01-18 09:00:00,
2013-01-18 04:06:00,32.1,31.4,30.28,SSW,199,0.0,0.0,97,0.00,,---,0.00,VWS V14.01,2013-01-18 09:06:00,
2013-01-18 04:11:00,31.7,31.1,30.31,South,178,0.0,0.0,97,0.00,,---,0.00,VWS V14.01,2013-01-18 09:11:00,
2013-01-18 04:16:00,31.2,30.5,30.31,SSW,203,0.0,0.0,97,0.00,,---,0.00,VWS V14.01,2013-01-18 09:16:00,
2013-01-18 04:21:00,30.8,30.2,30.31,SW,226,0.0,0.0,97,0.00,,---,0.00,VWS V14.01,2013-01-18 09:21:00,
2013-01-18 04:26:00,30.5,29.8,30.31,SW,223,0.0,0.0,97,0.00,,---,0.00,VWS V14.01,2013-01-18 09:26:00,
2013-01-18 04:31:00,30.1,29.5,30.31,SW,223,0.0,0.0,97,0.00,,---,0.00,VWS V14.01,2013-01-18 09:31:00,
2013-01-18 04:36:00,30.1,29.5,30.31,SW,223,0.0,0.0,97,0.00,,---,0.00,VWS V14.01,2013-01-18 09:36:00,
2013-01-18 04:42:00,29.9,29.3,30.31,SW,223,0.0,0.0,97,0.00,,---,0.00,VWS V14.01,2013-01-18 09:42:00,
2013-01-18 04:47:00,29.8,29.1,30.31,SW,223,0.0,0.0,97,0.00,,---,0.00,VWS V14.01,2013-01-18 09:47:00,
2013-01-18 04:52:00,29.6,28.9,30.31,SW,223,0.0,0.0,97,0.00,,---,0.00,VWS V14.01,2013-01-18 09:52:00,
2013-01-18 04:57:00,29.6,28.9,30.31,SW,223,0.0,0.0,97,0.00,,---,0.00,VWS V14.01,2013-01-18 09:57:00,
2013-01-18 05:02:00,29.4,28.7,30.31,SW,223,0.0,0.0,97,0.00,,---,0.00,VWS V14.01,2013-01-18 10:02:00,
2013-01-18 05:07:00,29.0,28.4,30.31,SW,223,0.0,0.0,97,0.00,,---,0.00,VWS V14.01,2013-01-18 10:07:00,
2013-01-18 05:12:00,29.0,28.4,30.31,SW,223,0.0,0.0,97,0.00,,---,0.00,VWS V14.01,2013-01-18 10:12:00,
2013-01-18 05:18:00,28.9,28.2,30.31,SW,222,0.0,0.0,97,0.00,,---,0.00,VWS V14.01,2013-01-18 10:18:00,
2013-01-18 05:23:00,28.7,28.0,30.31,SSE,162,0.0,0.0,97,0.00,,---,0.00,VWS V14.01,2013-01-18 10:23:00,
2013-01-18 05:28:00,28.3,27.6,30.31,SSE,157,0.0,0.0,97,0.00,,---,0.00,VWS V14.01,2013-01-18 10:28:00,
2013-01-18 05:33:00,28.1,27.5,30.31,SE,136,0.0,0.0,97,0.00,,---,0.00,VWS V14.01,2013-01-18 10:33:00,
2013-01-18 05:38:00,28.1,27.5,30.34,SE,143,0.0,0.0,97,0.00,,---,0.00,VWS V14.01,2013-01-18 10:38:00,
2013-01-18 05:43:00,28.0,27.3,30.34,SSW,198,0.0,0.0,97,0.00,,---,0.00,VWS V14.01,2013-01-18 10:43:00,
2013-01-18 05:49:00,28.1,27.5,30.34,SE,146,0.0,0.0,97,0.00,,---,0.00,VWS V14.01,2013-01-18 10:49:00,
2013-01-18 05:54:00,28.0,27.3,30.34,SE,138,0.0,0.0,97,0.00,,---,0.00,VWS V14.01,2013-01-18 10:54:00,
2013-01-18 05:59:00,28.0,27.3,30.34,SE,129,0.0,0.0,97,0.00,,---,0.00,VWS V14.01,2013-01-18 10:59:00,
2013-01-18 06:04:00,28.0,27.3,30.34,SSE,150,0.0,0.0,97,0.00,,---,0.00,VWS V14.01,2013-01-18 11:04:00,
2013-01-18 06:09:00,27.8,27.1,30.34,SE,140,0.0,0.0,97,0.00,,---,0.00,VWS V14.01,2013-01-18 11:09:00,
2013-01-18 06:14:00,27.6,26.9,30.34,SE,140,0.0,0.0,97,0.00,,---,0.00,VWS V14.01,2013-01-18 11:14:00,
2013-01-18 06:19:00,27.8,27.1,30.34,SE,140,0.0,0.0,97,0.00,,---,0.00,VWS V14.01,2013-01-18 11:19:00,
2013-01-18 06:24:00,27.8,27.1,30.34,SE,140,0.0,0.0,97,0.00,,---,0.00,VWS V14.01,2013-01-18 11:24:00,
2013-01-18 06:29:00,27.8,27.1,30.34,SE,140,0.0,0.0,97,0.00,,---,0.00,VWS V14.01,2013-01-18 11:29:00,
2013-01-18 06:34:00,28.0,27.3,30.34,ESE,114,0.0,0.0,97,0.00,,---,0.00,VWS V14.01,2013-01-18 11:34:00,
2013-01-18 06:39:00,28.0,27.3,30.37,NE,47,0.0,0.0,97,0.00,,---,0.00,VWS V14.01,2013-01-18 11:39:00,
2013-01-18 06:44:00,27.8,27.1,30.37,NNW,343,0.0,0.0,97,0.00,,---,0.00,VWS V14.01,2013-01-18 11:44:00,
2013-01-18 06:49:00,27.6,26.9,30.37,North,357,0.0,0.0,97,0.00,,---,0.00,VWS V14.01,2013-01-18 11:49:00,
2013-01-18 06:55:00,27.6,26.9,30.37,NNW,343,0.0,0.0,97,0.00,,---,0.00,VWS V14.01,2013-01-18 11:55:00,
2013-01-18 07:00:00,27.8,27.1,30.37,NNW,342,0.0,0.0,97,0.00,,---,0.00,VWS V14.01,2013-01-18 12:00:00,
2013-01-18 07:05:00,28.0,27.3,30.37,NW,325,0.0,0.0,97,0.00,,---,0.00,VWS V14.01,2013-01-18 12:05:00,
2013-01-18 07:10:00,28.1,27.5,30.37,NNW,333,0.0,0.0,97,0.00,,---,0.00,VWS V14.01,2013-01-18 12:10:00,
2013-01-18 07:15:00,28.9,27.5,30.37,NNW,340,0.0,0.0,95,0.00,,---,0.00,VWS V14.01,2013-01-18 12:15:00,
2013-01-18 07:20:00,29.6,25.2,30.37,NW,324,0.0,0.0,83,0.00,,---,0.00,VWS V14.01,2013-01-18 12:20:00,
2013-01-18 07:26:00,29.9,23.0,30.40,NNW,336,0.0,0.0,75,0.00,,---,0.00,VWS V14.01,2013-01-18 12:26:00,
2013-01-18 07:31:00,30.3,22.5,30.40,NW,326,0.0,0.0,72,0.00,,---,0.00,VWS V14.01,2013-01-18 12:31:00,
2013-01-18 07:36:00,30.7,21.9,30.40,NNW,328,0.0,0.0,70,0.00,,---,0.00,VWS V14.01,2013-01-18 12:36:00,
2013-01-18 07:41:00,30.8,22.5,30.40,NNW,341,0.0,0.0,71,0.00,,---,0.00,VWS V14.01,2013-01-18 12:41:00,
2013-01-18 07:46:00,30.8,23.0,30.40,NNW,346,0.0,0.0,72,0.00,,---,0.00,VWS V14.01,2013-01-18 12:46:00,
2013-01-18 07:51:00,30.7,22.8,30.40,NNW,345,0.0,0.0,72,0.00,,---,0.00,VWS V14.01,2013-01-18 12:51:00,
2013-01-18 07:57:00,30.7,23.3,30.43,NE,42,0.0,0.0,74,0.00,,---,0.00,VWS V14.01,2013-01-18 12:57:00,
2013-01-18 08:02:00,30.5,23.5,30.43,ESE,104,0.0,0.0,75,0.00,,---,0.00,VWS V14.01,2013-01-18 13:02:00,
2013-01-18 08:07:00,29.9,23.0,30.43,SE,129,0.0,0.0,75,0.00,,---,0.00,VWS V14.01,2013-01-18 13:07:00,
2013-01-18 08:12:00,29.6,22.7,30.43,SE,129,0.0,0.0,75,0.00,,---,0.00,VWS V14.01,2013-01-18 13:12:00,
2013-01-18 08:17:00,29.2,22.8,30.43,SE,142,0.0,0.0,76,0.00,,---,0.00,VWS V14.01,2013-01-18 13:17:00,
2013-01-18 08:22:00,29.0,22.6,30.43,SE,135,0.0,0.0,76,0.00,,---,0.00,VWS V14.01,2013-01-18 13:22:00,
2013-01-18 08:27:00,28.9,22.8,30.46,SE,144,0.0,0.0,78,0.00,,---,0.00,VWS V14.01,2013-01-18 13:27:00,
2013-01-18 08:33:00,28.9,22.8,30.46,SE,133,0.0,0.0,78,0.00,,---,0.00,VWS V14.01,2013-01-18 13:33:00,
2013-01-18 08:38:00,28.9,22.8,30.46,SE,133,0.0,0.0,78,0.00,,---,0.00,VWS V14.01,2013-01-18 13:38:00,
2013-01-18 08:43:00,28.9,23.2,30.46,NNE,25,0.0,0.0,79,0.00,,---,0.00,VWS V14.01,2013-01-18 13:43:00,
2013-01-18 08:48:00,28.9,23.2,30.46,North,0,0.0,0.0,79,0.00,,---,0.00,VWS V14.01,2013-01-18 13:48:00,
2013-01-18 08:53:00,29.0,23.4,30.46,NNW,341,3.9,4.5,79,0.00,,---,0.00,VWS V14.01,2013-01-18 13:53:00,
2013-01-18 08:58:00,29.4,23.8,30.46,North,6,7.8,12.6,79,0.00,,---,0.00,VWS V14.01,2013-01-18 13:58:00,
2013-01-18 09:04:00,29.8,24.1,30.46,North,350,7.1,9.1,79,0.00,,---,0.00,VWS V14.01,2013-01-18 14:04:00,
2013-01-18 09:09:00,30.3,24.2,30.49,North,353,5.2,7.8,78,0.00,,---,0.00,VWS V14.01,2013-01-18 14:09:00,
2013-01-18 09:14:00,30.8,24.8,30.49,North,1,5.2,8.4,78,0.00,,---,0.00,VWS V14.01,2013-01-18 14:14:00,
2013-01-18 09:19:00,31.2,25.1,30.49,NNE,21,4.5,6.5,78,0.00,,---,0.00,VWS V14.01,2013-01-18 14:19:00,
2013-01-18 09:24:00,31.6,24.6,30.49,North,0,7.1,8.4,75,0.00,,---,0.00,VWS V14.01,2013-01-18 14:24:00,
2013-01-18 09:30:00,31.7,24.8,30.49,North,3,8.4,11.0,75,0.00,,---,0.00,VWS V14.01,2013-01-18 14:30:00,
2013-01-18 09:35:00,31.7,24.8,30.49,NNE,14,7.8,7.8,75,0.00,,---,0.00,VWS V14.01,2013-01-18 14:35:00,
2013-01-18 09:40:00,32.1,24.6,30.52,NNE,33,5.8,5.8,74,0.00,,---,0.00,VWS V14.01,2013-01-18 14:40:00,
2013-01-18 09:45:00,32.3,24.4,30.52,NE,38,7.8,11.7,72,0.00,,---,0.00,VWS V14.01,2013-01-18 14:45:00,
2013-01-18 09:50:00,32.3,23.9,30.52,North,5,9.1,12.6,71,0.00,,---,0.00,VWS V14.01,2013-01-18 14:50:00,
2013-01-18 09:55:00,32.6,24.7,30.52,North,357,8.4,12.6,72,0.00,,---,0.00,VWS V14.01,2013-01-18 14:55:00,
2013-01-18 10:01:00,32.5,20.6,30.52,NW,324,8.4,11.7,61,0.00,,---,0.00,VWS V14.01,2013-01-18 15:01:00,
2013-01-18 10:06:00,32.5,20.6,30.52,NW,321,5.8,12.0,61,0.00,,---,0.00,VWS V14.01,2013-01-18 15:06:00,
2013-01-18 10:11:00,32.5,21.1,30.52,NNW,344,12.6,12.6,63,0.00,,---,0.00,VWS V14.01,2013-01-18 15:11:00,
2013-01-18 10:16:00,32.6,21.3,30.52,North,353,7.8,9.1,63,0.00,,---,0.00,VWS V14.01,2013-01-18 15:16:00,
2013-01-18 10:21:00,33.0,22.1,30.52,NNW,346,12.0,12.0,64,0.00,,---,0.00,VWS V14.01,2013-01-18 15:21:00,
2013-01-18 10:26:00,33.2,22.3,30.52,North,0,5.2,7.8,64,0.00,,---,0.00,VWS V14.01,2013-01-18 15:26:00,
2013-01-18 10:31:00,33.5,23.2,30.52,NNW,328,7.8,8.4,65,0.00,,---,0.00,VWS V14.01,2013-01-18 15:31:00,
2013-01-18 10:36:00,33.5,22.7,30.52,NNW,348,10.4,12.6,64,0.00,,---,0.00,VWS V14.01,2013-01-18 15:36:00,
2013-01-18 10:41:00,33.5,22.1,30.52,North,2,10.4,12.0,63,0.00,,---,0.00,VWS V14.01,2013-01-18 15:41:00,
2013-01-18 10:47:00,33.7,22.3,30.52,NNW,338,12.6,12.6,63,0.00,,---,0.00,VWS V14.01,2013-01-18 15:47:00,
2013-01-18 10:52:00,33.9,22.0,30.52,North,8,15.9,15.9,61,0.00,,---,0.00,VWS V14.01,2013-01-18 15:52:00,
2013-01-18 10:57:00,33.9,20.9,30.52,North,0,5.8,9.1,58,0.00,,---,0.00,VWS V14.01,2013-01-18 15:57:00,
2013-01-18 11:02:00,33.9,19.7,30.52,North,353,11.7,11.7,56,0.00,,---,0.00,VWS V14.01,2013-01-18 16:02:00,
2013-01-18 11:07:00,34.1,21.0,30.52,North,2,4.5,8.4,58,0.00,,---,0.00,VWS V14.01,2013-01-18 16:07:00,
2013-01-18 11:12:00,34.1,19.3,30.52,NW,316,11.0,11.7,54,0.00,,---,0.00,VWS V14.01,2013-01-18 16:12:00,
2013-01-18 11:17:00,33.9,20.3,30.52,NNE,21,7.8,8.4,57,0.00,,---,0.00,VWS V14.01,2013-01-18 16:17:00,
2013-01-18 11:22:00,34.1,20.5,30.52,NNE,19,3.9,11.0,57,0.00,,---,0.00,VWS V14.01,2013-01-18 16:22:00,
2013-01-18 11:27:00,34.4,21.4,30.52,North,8,3.9,7.8,58,0.00,,---,0.00,VWS V14.01,2013-01-18 16:27:00,
2013-01-18 11:32:00,34.8,21.7,30.52,NE,46,5.8,7.8,58,0.00,,---,0.00,VWS V14.01,2013-01-18 16:32:00,
2013-01-18 11:38:00,35.0,21.3,30.52,NNE,27,9.1,9.1,57,0.00,,---,0.00,VWS V14.01,2013-01-18 16:38:00,
2013-01-18 11:43:00,35.0,20.7,30.52,North,357,9.1,9.1,56,0.00,,---,0.00,VWS V14.01,2013-01-18 16:43:00,
2013-01-18 11:48:00,35.0,21.3,30.52,NE,35,5.8,7.8,57,0.00,,---,0.00,VWS V14.01,2013-01-18 16:48:00,
2013-01-18 11:53:00,35.2,21.5,30.52,North,1,4.5,5.2,57,0.00,,---,0.00,VWS V14.01,2013-01-18 16:53:00,
2013-01-18 11:58:00,35.2,20.9,30.52,North,0,8.4,9.7,56,0.00,,---,0.00,VWS V14.01,2013-01-18 16:58:00,
2013-01-18 12:03:00,35.3,21.6,30.52,North,7,3.9,7.8,57,0.00,,---,0.00,VWS V14.01,2013-01-18 17:03:00,
2013-01-18 12:08:00,35.3,21.0,30.52,NNE,22,5.2,7.1,56,0.00,,---,0.00,VWS V14.01,2013-01-18 17:08:00,
2013-01-18 12:13:00,35.3,21.0,30.52,NNW,329,7.8,9.1,56,0.00,,---,0.00,VWS V14.01,2013-01-18 17:13:00,
2013-01-18 12:18:00,35.3,21.0,30.52,North,357,8.4,8.4,56,0.00,,---,0.00,VWS V14.01,2013-01-18 17:18:00,
2013-01-18 12:24:00,35.3,21.0,30.52,NNW,336,5.2,6.5,56,0.00,,---,0.00,VWS V14.01,2013-01-18 17:24:00,
2013-01-18 12:29:00,35.5,21.2,30.52,North,1,7.1,7.1,56,0.00,,---,0.00,VWS V14.01,2013-01-18 17:29:00,
2013-01-18 12:34:00,35.5,20.0,30.52,NNE,14,7.8,7.8,53,0.00,,---,0.00,VWS V14.01,2013-01-18 17:34:00,
2013-01-18 12:39:00,35.5,20.6,30.52,NE,50,7.8,7.8,54,0.00,,---,0.00,VWS V14.01,2013-01-18 17:39:00,
2013-01-18 12:44:00,35.7,21.4,30.52,North,357,9.1,9.1,56,0.00,,---,0.00,VWS V14.01,2013-01-18 17:44:00,
2013-01-18 12:49:00,35.9,19.7,30.52,North,0,0.0,0.0,51,0.00,,---,0.00,VWS V14.01,2013-01-18 17:49:00,
2013-01-18 12:54:00,35.9,21.6,30.52,NNW,344,4.5,8.4,56,0.00,,---,0.00,VWS V14.01,2013-01-18 17:54:00,
2013-01-18 12:59:00,36.2,21.9,30.52,North,2,3.2,5.2,56,0.00,,---,0.00,VWS V14.01,2013-01-18 17:59:00,
2013-01-18 13:04:00,36.2,19.4,30.52,NW,308,0.0,3.9,50,0.00,,---,0.00,VWS V14.01,2013-01-18 18:04:00,
2013-01-18 13:09:00,36.1,20.5,30.52,NNE,24,7.8,9.7,53,0.00,,---,0.00,VWS V14.01,2013-01-18 18:09:00,
2013-01-18 13:15:00,36.4,20.9,30.52,NNE,28,3.9,7.1,53,0.00,,---,0.00,VWS V14.01,2013-01-18 18:15:00,
2013-01-18 13:20:00,36.6,20.4,30.52,North,353,5.2,7.1,51,0.00,,---,0.00,VWS V14.01,2013-01-18 18:20:00,
2013-01-18 13:25:00,36.4,20.2,30.52,ENE,60,3.2,4.5,51,0.00,,---,0.00,VWS V14.01,2013-01-18 18:25:00,
2013-01-18 13:30:00,36.6,20.4,30.52,North,7,7.1,7.1,51,0.00,,---,0.00,VWS V14.01,2013-01-18 18:30:00,
2013-01-18 13:35:00,36.8,19.9,30.52,NNW,341,0.0,5.8,50,0.00,,---,0.00,VWS V14.01,2013-01-18 18:35:00,
2013-01-18 13:41:00,36.6,18.4,30.52,North,357,5.8,5.8,47,0.00,,---,0.00,VWS V14.01,2013-01-18 18:41:00,
2013-01-18 13:46:00,36.6,19.8,30.52,NNW,338,0.0,0.0,50,0.00,,---,0.00,VWS V14.01,2013-01-18 18:46:00,
2013-01-18 13:51:00,36.6,19.8,30.52,WSW,237,0.0,0.0,50,0.04,,---,0.04,VWS V14.01,2013-01-18 18:51:00,
2013-01-18 13:56:00,36.6,20.4,30.52,South,172,0.0,3.9,51,0.04,,---,0.04,VWS V14.01,2013-01-18 18:56:00,
2013-01-18 14:01:00,36.8,21.2,30.52,South,171,0.0,0.0,53,0.04,,---,0.04,VWS V14.01,2013-01-18 19:01:00,
2013-01-18 14:06:00,37.0,21.4,30.52,WSW,239,0.0,0.0,53,0.04,,---,0.04,VWS V14.01,2013-01-18 19:06:00,
2013-01-18 14:11:00,37.1,21.5,30.52,West,264,0.0,0.0,53,0.04,,---,0.04,VWS V14.01,2013-01-18 19:11:00,
2013-01-18 14:17:00,37.1,20.9,30.52,NNW,329,0.0,7.8,51,0.04,,---,0.04,VWS V14.01,2013-01-18 19:17:00,
2013-01-18 14:22:00,37.3,20.4,30.52,NNW,348,3.9,3.9,50,0.04,,---,0.04,VWS V14.01,2013-01-18 19:22:00,
2013-01-18 14:27:00,37.3,20.4,30.52,NNW,327,0.0,3.9,50,0.04,,---,0.04,VWS V14.01,2013-01-18 19:27:00,
2013-01-18 14:32:00,37.5,21.2,30.52,West,263,0.0,0.0,51,0.04,,---,0.04,VWS V14.01,2013-01-18 19:32:00,
2013-01-18 14:37:00,37.5,20.6,30.52,NNW,340,3.9,3.9,50,0.04,,---,0.04,VWS V14.01,2013-01-18 19:37:00,
2013-01-18 14:42:00,37.7,21.4,30.52,NNW,330,3.2,3.9,51,0.04,,---,0.04,VWS V14.01,2013-01-18 19:42:00,
2013-01-18 14:47:00,37.7,21.4,30.52,WSW,248,0.0,0.0,51,0.00,,---,0.04,VWS V14.01,2013-01-18 19:47:00,
2013-01-18 14:52:00,37.7,21.4,30.52,WSW,248,0.0,0.0,51,0.00,,---,0.04,VWS V14.01,2013-01-18 19:52:00,
2013-01-18 14:57:00,37.9,21.6,30.52,NE,43,3.9,5.2,51,0.00,,---,0.04,VWS V14.01,2013-01-18 19:57:00,
2013-01-18 15:02:00,37.9,22.2,30.52,SSW,204,3.9,5.2,53,0.00,,---,0.04,VWS V14.01,2013-01-18 20:02:00,
2013-01-18 15:08:00,38.0,22.4,30.52,SW,223,4.5,6.5,53,0.00,,---,0.04,VWS V14.01,2013-01-18 20:08:00,
2013-01-18 15:13:00,38.2,22.5,30.52,WSW,244,0.0,5.8,53,0.00,,---,0.04,VWS V14.01,2013-01-18 20:13:00,
2013-01-18 15:18:00,38.2,23.1,30.52,SSW,208,0.0,3.9,54,0.00,,---,0.04,VWS V14.01,2013-01-18 20:18:00,
2013-01-18 15:23:00,38.2,23.1,30.55,WSW,252,0.0,0.0,54,0.00,,---,0.04,VWS V14.01,2013-01-18 20:23:00,
2013-01-18 15:28:00,38.0,23.0,30.55,WNW,284,0.0,0.0,54,0.00,,---,0.04,VWS V14.01,2013-01-18 20:28:00,
2013-01-18 15:33:00,38.0,22.4,30.55,SSW,206,3.9,5.8,53,0.00,,---,0.04,VWS V14.01,2013-01-18 20:33:00,
2013-01-18 15:39:00,38.0,22.4,30.52,SSW,210,0.0,0.0,53,0.04,,---,0.08,VWS V14.01,2013-01-18 20:39:00,
2013-01-18 15:44:00,37.9,22.2,30.52,SW,234,0.0,0.0,53,0.04,,---,0.08,VWS V14.01,2013-01-18 20:44:00,
2013-01-18 15:49:00,37.9,22.2,30.52,SSW,209,0.0,0.0,53,0.04,,---,0.08,VWS V14.01,2013-01-18 20:49:00,
2013-01-18 15:54:00,37.9,22.2,30.55,SSW,205,0.0,0.0,53,0.04,,---,0.08,VWS V14.01,2013-01-18 20:54:00,
2013-01-18 15:59:00,37.9,21.6,30.55,WSW,254,0.0,0.0,51,0.04,,---,0.08,VWS V14.01,2013-01-18 20:59:00,
2013-01-18 16:04:00,37.7,21.4,30.55,SW,225,0.0,0.0,51,0.04,,---,0.08,VWS V14.01,2013-01-18 21:04:00,
2013-01-18 16:09:00,37.5,21.9,30.55,SSW,208,0.0,0.0,53,0.04,,---,0.08,VWS V14.01,2013-01-18 21:09:00,
2013-01-18 16:14:00,37.5,21.9,30.55,South,185,3.2,3.9,53,0.04,,---,0.08,VWS V14.01,2013-01-18 21:14:00,
2013-01-18 16:20:00,37.5,21.2,30.55,SSE,152,3.2,3.2,51,0.04,,---,0.08,VWS V14.01,2013-01-18 21:20:00,
2013-01-18 16:25:00,37.7,21.4,30.55,SW,224,0.0,0.0,51,0.04,,---,0.08,VWS V14.01,2013-01-18 21:25:00,
2013-01-18 16:30:00,37.7,21.4,30.55,South,189,0.0,0.0,51,0.04,,---,0.08,VWS V14.01,2013-01-18 21:30:00,
2013-01-18 16:35:00,37.7,21.4,30.55,SSW,195,0.0,0.0,51,0.04,,---,0.08,VWS V14.01,2013-01-18 21:35:00,
2013-01-18 16:40:00,37.7,21.4,30.55,SE,139,0.0,0.0,51,0.00,,---,0.08,VWS V14.01,2013-01-18 21:40:00,
2013-01-18 16:45:00,37.5,21.2,30.55,South,179,0.0,0.0,51,0.00,,---,0.08,VWS V14.01,2013-01-18 21:45:00,
2013-01-18 16:50:00,37.5,21.2,30.55,SSE,164,0.0,3.2,51,0.00,,---,0.08,VWS V14.01,2013-01-18 21:50:00,
2013-01-18 16:55:00,37.3,21.1,30.55,SSE,163,0.0,0.0,51,0.00,,---,0.08,VWS V14.01,2013-01-18 21:55:00,
2013-01-18 17:00:00,37.3,21.1,30.55,South,191,0.0,0.0,51,0.00,,---,0.08,VWS V14.01,2013-01-18 22:00:00,
2013-01-18 17:05:00,37.1,20.9,30.55,South,187,0.0,0.0,51,0.00,,---,0.08,VWS V14.01,2013-01-18 22:05:00,
2013-01-18 17:11:00,37.0,20.7,30.55,South,187,0.0,0.0,51,0.00,,---,0.08,VWS V14.01,2013-01-18 22:11:00,
2013-01-18 17:16:00,36.8,19.9,30.55,South,187,0.0,0.0,50,0.00,,---,0.08,VWS V14.01,2013-01-18 22:16:00,
2013-01-18 17:21:00,36.6,19.8,30.55,South,187,3.2,3.2,50,0.00,,---,0.08,VWS V14.01,2013-01-18 22:21:00,
2013-01-18 17:26:00,36.4,20.2,30.55,South,185,0.0,3.2,51,0.00,,---,0.08,VWS V14.01,2013-01-18 22:26:00,
2013-01-18 17:31:00,36.1,19.9,30.55,South,177,3.2,3.2,51,0.00,,---,0.08,VWS V14.01,2013-01-18 22:31:00,
2013-01-18 17:36:00,35.7,19.6,30.55,SSE,158,3.2,3.9,51,0.00,,---,0.08,VWS V14.01,2013-01-18 22:36:00,
2013-01-18 17:41:00,35.2,19.7,30.55,SSE,156,0.0,3.9,53,0.00,,---,0.08,VWS V14.01,2013-01-18 22:41:00,
2013-01-18 17:47:00,34.8,19.4,30.55,SSE,155,3.9,4.5,53,0.00,,---,0.08,VWS V14.01,2013-01-18 22:47:00,
2013-01-18 17:52:00,34.4,19.6,30.55,SE,145,3.2,4.5,54,0.00,,---,0.08,VWS V14.01,2013-01-18 22:52:00,
2013-01-18 17:57:00,34.1,19.9,30.55,South,176,0.0,0.0,56,0.00,,---,0.08,VWS V14.01,2013-01-18 22:57:00,
2013-01-18 18:02:00,33.7,19.5,30.55,SSE,158,3.9,4.5,56,0.00,,---,0.08,VWS V14.01,2013-01-18 23:02:00,
2013-01-18 18:07:00,33.5,19.4,30.55,SE,143,5.2,5.2,56,0.00,,---,0.08,VWS V14.01,2013-01-18 23:07:00,
2013-01-18 18:12:00,33.5,19.4,30.55,SSE,156,3.2,3.9,56,0.00,,---,0.08,VWS V14.01,2013-01-18 23:12:00,
2013-01-18 18:18:00,33.5,19.4,30.55,SE,145,5.2,5.2,56,0.00,,---,0.08,VWS V14.01,2013-01-18 23:18:00,
2013-01-18 18:23:00,33.5,20.0,30.55,SSE,153,0.0,4.5,57,0.00,,---,0.08,VWS V14.01,2013-01-18 23:23:00,
2013-01-18 18:28:00,33.5,20.0,30.55,SSE,158,0.0,0.0,57,0.00,,---,0.08,VWS V14.01,2013-01-18 23:28:00,
2013-01-18 18:33:00,33.5,20.0,30.55,South,172,5.2,9.1,57,0.00,,---,0.08,VWS V14.01,2013-01-18 23:33:00,
2013-01-18 18:38:00,33.7,20.1,30.55,SE,145,5.8,7.8,57,0.00,,---,0.08,VWS V14.01,2013-01-18 23:38:00,
2013-01-18 18:43:00,33.9,20.3,30.55,SSE,156,3.2,3.2,57,0.00,,---,0.08,VWS V14.01,2013-01-18 23:43:00,
2013-01-18 18:48:00,34.1,20.5,30.55,SSW,194,0.0,0.0,57,0.00,,---,0.08,VWS V14.01,2013-01-18 23:48:00,
2013-01-18 18:53:00,34.1,20.5,30.55,WSW,251,0.0,0.0,57,0.00,,---,0.08,VWS V14.01,2013-01-18 23:53:00,
2013-01-18 18:59:00,33.9,20.3,30.55,WSW,240,0.0,0.0,57,0.00,,---,0.08,VWS V14.01,2013-01-18 23:59:00,
2013-01-18 19:04:00,33.9,20.9,30.55,WSW,240,0.0,0.0,58,0.00,,---,0.08,VWS V14.01,2013-01-19 00:04:00,
2013-01-18 19:09:00,33.7,20.7,30.55,WSW,237,0.0,0.0,58,0.00,,---,0.08,VWS V14.01,2013-01-19 00:09:00,
2013-01-18 19:14:00,33.5,20.5,30.55,WSW,237,0.0,0.0,58,0.00,,---,0.08,VWS V14.01,2013-01-19 00:14:00,
2013-01-18 19:19:00,33.5,20.5,30.55,WSW,237,0.0,0.0,58,0.00,,---,0.08,VWS V14.01,2013-01-19 00:19:00,
2013-01-18 19:24:00,33.2,20.2,30.55,WSW,237,0.0,0.0,58,0.00,,---,0.08,VWS V14.01,2013-01-19 00:24:00,
2013-01-18 19:29:00,33.0,20.0,30.55,WSW,237,0.0,0.0,58,0.00,,---,0.08,VWS V14.01,2013-01-19 00:29:00,
2013-01-18 19:35:00,32.8,19.8,30.55,WSW,237,0.0,0.0,58,0.00,,---,0.08,VWS V14.01,2013-01-19 00:35:00,
2013-01-18 19:40:00,32.6,19.7,30.55,WSW,237,0.0,0.0,58,0.00,,---,0.08,VWS V14.01,2013-01-19 00:40:00,
2013-01-18 19:45:00,32.5,19.5,30.55,WSW,237,0.0,0.0,58,0.00,,---,0.08,VWS V14.01,2013-01-19 00:45:00,
2013-01-18 19:50:00,32.3,19.3,30.55,WSW,237,0.0,0.0,58,0.00,,---,0.08,VWS V14.01,2013-01-19 00:50:00,
2013-01-18 19:55:00,32.1,19.2,30.55,WSW,237,0.0,0.0,58,0.00,,---,0.08,VWS V14.01,2013-01-19 00:55:00,
2013-01-18 20:00:00,32.1,19.2,30.55,WSW,237,0.0,0.0,58,0.00,,---,0.08,VWS V14.01,2013-01-19 01:00:00,
2013-01-18 20:05:00,31.9,19.5,30.55,WSW,237,0.0,0.0,60,0.00,,---,0.08,VWS V14.01,2013-01-19 01:05:00,
2013-01-18 20:10:00,31.9,19.5,30.55,WSW,237,0.0,0.0,60,0.00,,---,0.08,VWS V14.01,2013-01-19 01:10:00,
2013-01-18 20:15:00,31.7,19.4,30.55,WSW,237,0.0,0.0,60,0.00,,---,0.08,VWS V14.01,2013-01-19 01:15:00,
2013-01-18 20:21:00,31.4,19.0,30.55,WSW,237,0.0,0.0,60,0.00,,---,0.08,VWS V14.01,2013-01-19 01:21:00,
2013-01-18 20:26:00,31.2,18.9,30.55,WSW,237,0.0,0.0,60,0.00,,---,0.08,VWS V14.01,2013-01-19 01:26:00,
2013-01-18 20:31:00,31.0,18.7,30.55,SSW,197,0.0,0.0,60,0.00,,---,0.08,VWS V14.01,2013-01-19 01:31:00,
2013-01-18 20:36:00,31.0,19.2,30.55,South,188,0.0,3.2,61,0.00,,---,0.08,VWS V14.01,2013-01-19 01:36:00,
2013-01-18 20:41:00,30.7,18.9,30.55,South,174,0.0,3.2,61,0.00,,---,0.08,VWS V14.01,2013-01-19 01:41:00,
2013-01-18 20:46:00,30.5,18.7,30.55,SSE,158,0.0,3.2,61,0.00,,---,0.08,VWS V14.01,2013-01-19 01:46:00,
2013-01-18 20:51:00,30.3,18.5,30.55,SSE,154,3.9,3.9,61,0.00,,---,0.08,VWS V14.01,2013-01-19 01:51:00,
2013-01-18 20:56:00,30.1,18.4,30.55,SSE,161,3.2,3.9,61,0.00,,---,0.08,VWS V14.01,2013-01-19 01:56:00,
2013-01-18 21:02:00,29.9,18.2,30.55,SSE,152,3.9,4.5,61,0.00,,---,0.08,VWS V14.01,2013-01-19 02:02:00,
2013-01-18 21:07:00,29.6,17.9,30.55,SE,143,3.9,3.9,61,0.00,,---,0.08,VWS V14.01,2013-01-19 02:07:00,
2013-01-18 21:12:00,29.4,18.2,30.55,SSE,166,3.2,3.2,63,0.00,,---,0.08,VWS V14.01,2013-01-19 02:12:00,
2013-01-18 21:17:00,29.2,18.0,30.55,SE,140,4.5,5.2,63,0.00,,---,0.08,VWS V14.01,2013-01-19 02:17:00,
2013-01-18 21:22:00,29.2,18.0,30.55,SSE,154,0.0,0.0,63,0.00,,---,0.08,VWS V14.01,2013-01-19 02:22:00,
2013-01-18 21:27:00,29.2,18.0,30.55,SSE,152,4.5,4.5,63,0.00,,---,0.08,VWS V14.01,2013-01-19 02:27:00,
2013-01-18 21:32:00,29.0,17.9,30.55,SSE,148,3.9,4.5,63,0.00,,---,0.08,VWS V14.01,2013-01-19 02:32:00,
2013-01-18 21:37:00,29.0,18.4,30.55,SSE,149,5.2,5.2,64,0.00,,---,0.08,VWS V14.01,2013-01-19 02:37:00,
2013-01-18 21:43:00,28.9,18.2,30.55,SSE,151,3.9,3.9,64,0.00,,---,0.08,VWS V14.01,2013-01-19 02:43:00,
2013-01-18 21:48:00,28.7,18.0,30.55,SSE,155,3.9,3.9,64,0.00,,---,0.08,VWS V14.01,2013-01-19 02:48:00,
2013-01-18 21:53:00,28.7,18.0,30.55,SSE,168,4.5,4.5,64,0.00,,---,0.08,VWS V14.01,2013-01-19 02:53:00,
2013-01-18 21:58:00,28.5,17.9,30.55,SE,146,4.5,4.5,64,0.00,,---,0.08,VWS V14.01,2013-01-19 02:58:00,
2013-01-18 22:03:00,28.7,18.0,30.55,SE,146,0.0,0.0,64,0.00,,---,0.08,VWS V14.01,2013-01-19 03:03:00,
2013-01-18 22:08:00,28.5,17.9,30.55,SE,146,0.0,0.0,64,0.00,,---,0.08,VWS V14.01,2013-01-19 03:08:00,
2013-01-18 22:13:00,28.5,18.4,30.55,SE,146,0.0,0.0,65,0.00,,---,0.08,VWS V14.01,2013-01-19 03:13:00,
2013-01-18 22:19:00,28.3,18.2,30.55,SE,146,0.0,0.0,65,0.00,,---,0.08,VWS V14.01,2013-01-19 03:19:00,
2013-01-18 22:24:00,28.3,18.2,30.55,SE,146,0.0,0.0,65,0.00,,---,0.08,VWS V14.01,2013-01-19 03:24:00,
2013-01-18 22:29:00,28.1,18.0,30.55,SE,146,0.0,0.0,65,0.00,,---,0.08,VWS V14.01,2013-01-19 03:29:00,
2013-01-18 22:34:00,28.0,17.9,30.55,SE,146,3.2,3.2,65,0.00,,---,0.08,VWS V14.01,2013-01-19 03:34:00,
2013-01-18 22:39:00,28.0,17.9,30.55,SSE,147,0.0,0.0,65,0.00,,---,0.08,VWS V14.01,2013-01-19 03:39:00,
2013-01-18 22:44:00,27.8,17.7,30.55,SSE,150,0.0,0.0,65,0.00,,---,0.08,VWS V14.01,2013-01-19 03:44:00,
2013-01-18 22:49:00,27.6,18.0,30.55,SSE,152,3.2,3.2,67,0.00,,---,0.08,VWS V14.01,2013-01-19 03:49:00,
2013-01-18 22:54:00,27.4,17.8,30.52,SSE,152,0.0,0.0,67,0.00,,---,0.08,VWS V14.01,2013-01-19 03:54:00,
2013-01-18 22:59:00,27.4,17.8,30.52,SSE,152,0.0,0.0,67,0.00,,---,0.08,VWS V14.01,2013-01-19 03:59:00,
2013-01-18 23:04:00,27.2,17.6,30.52,SSE,154,3.2,4.5,67,0.00,,---,0.08,VWS V14.01,2013-01-19 04:04:00,
2013-01-18 23:09:00,27.1,17.5,30.52,SSE,149,0.0,0.0,67,0.00,,---,0.08,VWS V14.01,2013-01-19 04:09:00,
2013-01-18 23:15:00,27.1,18.0,30.52,SSE,149,0.0,0.0,68,0.00,,---,0.08,VWS V14.01,2013-01-19 04:15:00,
2013-01-18 23:20:00,27.1,18.0,30.52,SSE,149,0.0,0.0,68,0.00,,---,0.08,VWS V14.01,2013-01-19 04:20:00,
2013-01-18 23:25:00,26.9,17.8,30.52,SSE,149,0.0,0.0,68,0.00,,---,0.08,VWS V14.01,2013-01-19 04:25:00,
2013-01-18 23:30:00,26.9,17.8,30.52,SE,146,0.0,3.2,68,0.00,,---,0.08,VWS V14.01,2013-01-19 04:30:00,
2013-01-18 23:35:00,26.7,17.6,30.52,SE,146,0.0,0.0,68,0.00,,---,0.08,VWS V14.01,2013-01-19 04:35:00,
2013-01-18 23:40:00,26.7,17.6,30.52,SE,146,0.0,0.0,68,0.00,,---,0.08,VWS V14.01,2013-01-19 04:40:00,
2013-01-18 23:45:00,26.7,18.1,30.52,SE,146,0.0,0.0,70,0.00,,---,0.08,VWS V14.01,2013-01-19 04:45:00,
2013-01-18 23:50:00,26.7,18.1,30.52,SE,146,0.0,0.0,70,0.00,,---,0.08,VWS V14.01,2013-01-19 04:50:00,
2013-01-18 23:56:00,26.5,17.9,30.52,SE,146,3.2,4.5,70,0.00,,---,0.08,VWS V14.01,2013-01-19 04:56:00,